Time;durP1;ratioP1;P1;durP2;ratioP2;P2;SDS_P1;SDS_P2;PMS_P1;PMS_P2;Temp;Humidity;BMP_temperature;BMP_pressure;BME280_temperature;BME280_humidity;BME280_pressure;Samples;Min_cycle;Max_cycle;Signal;HPM_P1;HPM_P2
2023/12/25 00:00:07;;;;;;;6.97;1.70;;;;;;;;;;5000315;28;20495;-61
2023/12/25 00:02:32;;;;;;;7.88;1.63;;;;;;;;;;5001199;28;20496;-60
2023/12/25 00:04:58;;;;;;;7.37;1.73;;;;;;;;;;4994464;28;20669;-60
2023/12/25 00:07:23;;;;;;;7.17;1.80;;;;;;;;;;4992724;28;20499;-60
2023/12/25 00:09:49;;;;;;;7.37;2.00;;;;;;;;;;4994336;28;20463;-60
2023/12/25 00:12:14;;;;;;;7.35;1.70;;;;;;;;;;5000567;28;20777;-60
2023/12/25 00:14:40;;;;;;;7.10;1.73;;;;;;;;;;5001047;28;20496;-61
2023/12/25 00:17:05;;;;;;;5.23;1.50;;;;;;;;;;5001103;28;20896;-61
2023/12/25 00:19:30;;;;;;;8.53;1.70;;;;;;;;;;5000772;28;20432;-60
2023/12/25 00:21:58;;;;;;;6.03;1.50;;;;;;;;;;5000958;28;20413;-61
2023/12/25 00:24:23;;;;;;;7.40;1.70;;;;;;;;;;5000874;28;20408;-60
2023/12/25 00:26:48;;;;;;;7.80;1.65;;;;;;;;;;4996593;28;20494;-61
2023/12/25 00:29:13;;;;;;;7.43;1.63;;;;;;;;;;5010648;28;20410;-61
2023/12/25 00:31:39;;;;;;;6.80;1.50;;;;;;;;;;5013243;28;20462;-61
2023/12/25 00:34:04;;;;;;;7.80;1.70;;;;;;;;;;5016796;28;20398;-61
2023/12/25 00:36:29;;;;;;;5.27;1.40;;;;;;;;;;5014553;28;20397;-61
2023/12/25 00:38:55;;;;;;;8.63;1.73;;;;;;;;;;4999974;28;20416;-60
2023/12/25 00:41:20;;;;;;;7.60;1.90;;;;;;;;;;5000410;28;20855;-61
2023/12/25 00:43:45;;;;;;;7.18;1.73;;;;;;;;;;5000770;28;20875;-60
2023/12/25 00:46:10;;;;;;;8.07;1.50;;;;;;;;;;5000788;28;20413;-61
2023/12/25 00:48:36;;;;;;;8.27;1.67;;;;;;;;;;4992541;28;20405;-60
2023/12/25 00:51:01;;;;;;;8.83;1.87;;;;;;;;;;4993216;28;20866;-61
2023/12/25 00:53:27;;;;;;;8.00;1.70;;;;;;;;;;4993814;28;21482;-61
2023/12/25 00:55:52;;;;;;;9.27;2.00;;;;;;;;;;4995184;28;20405;-61
2023/12/25 00:58:19;;;;;;;8.87;1.70;;;;;;;;;;4999604;28;20409;-61
2023/12/25 01:00:44;;;;;;;7.40;1.50;;;;;;;;;;5000751;28;20405;-62
2023/12/25 01:03:10;;;;;;;9.53;1.80;;;;;;;;;;4999728;28;20463;-61
2023/12/25 01:05:35;;;;;;;4.87;1.37;;;;;;;;;;5001003;28;20404;-61
2023/12/25 01:08:00;;;;;;;4.53;1.00;;;;;;;;;;5000053;28;20499;-63
2023/12/25 01:10:25;;;;;;;4.80;0.90;;;;;;;;;;4999434;28;20401;-61
2023/12/25 01:12:51;;;;;;;4.97;1.00;;;;;;;;;;4993617;28;20912;-61
2023/12/25 01:15:16;;;;;;;3.80;0.90;;;;;;;;;;4992454;28;20408;-61
2023/12/25 01:17:41;;;;;;;4.05;1.00;;;;;;;;;;4992358;28;20529;-61
2023/12/25 01:20:07;;;;;;;4.13;1.07;;;;;;;;;;4998926;28;20848;-61
2023/12/25 01:22:32;;;;;;;5.17;0.90;;;;;;;;;;5000373;28;20401;-61
2023/12/25 01:24:57;;;;;;;3.57;0.80;;;;;;;;;;5006226;28;20997;-61
2023/12/25 01:27:23;;;;;;;4.70;0.87;;;;;;;;;;5027778;28;20409;-61
2023/12/25 01:29:48;;;;;;;4.13;0.80;;;;;;;;;;5028391;28;20414;-60
2023/12/25 01:32:13;;;;;;;5.33;1.20;;;;;;;;;;5028014;28;20666;-61
2023/12/25 01:34:38;;;;;;;3.77;1.00;;;;;;;;;;5028689;28;21825;-60
2023/12/25 01:37:04;;;;;;;4.67;1.00;;;;;;;;;;5028315;28;20469;-61
2023/12/25 01:39:29;;;;;;;5.20;1.03;;;;;;;;;;5027095;28;20740;-60
2023/12/25 01:41:54;;;;;;;6.47;1.13;;;;;;;;;;5028859;28;20490;-60
2023/12/25 01:44:20;;;;;;;6.13;1.20;;;;;;;;;;5027611;28;20881;-61
2023/12/25 01:46:45;;;;;;;5.40;1.10;;;;;;;;;;5028507;28;20401;-60
2023/12/25 01:49:10;;;;;;;7.40;1.57;;;;;;;;;;5036287;28;20754;-61
2023/12/25 01:51:36;;;;;;;10.13;1.73;;;;;;;;;;5030287;28;20401;-60
2023/12/25 01:54:04;;;;;;;8.53;1.87;;;;;;;;;;5027975;28;20817;-61
2023/12/25 01:56:29;;;;;;;9.47;2.20;;;;;;;;;;5028043;28;20391;-60
2023/12/25 01:58:55;;;;;;;8.85;1.88;;;;;;;;;;5025436;28;20410;-60
2023/12/25 02:01:20;;;;;;;9.47;1.80;;;;;;;;;;5027754;28;20406;-60
2023/12/25 02:03:47;;;;;;;9.37;2.03;;;;;;;;;;5028696;28;20485;-61
2023/12/25 02:06:12;;;;;;;8.23;1.65;;;;;;;;;;5020967;28;20473;-61
2023/12/25 02:08:38;;;;;;;8.63;1.87;;;;;;;;;;4998985;28;20405;-61
2023/12/25 02:11:03;;;;;;;9.63;1.83;;;;;;;;;;4999208;28;20412;-61
2023/12/25 02:13:29;;;;;;;9.85;1.65;;;;;;;;;;4998879;28;20484;-60
2023/12/25 02:15:54;;;;;;;6.43;1.60;;;;;;;;;;4998512;28;20400;-61
2023/12/25 02:18:19;;;;;;;8.30;1.70;;;;;;;;;;5025016;28;20407;-60
2023/12/25 02:20:44;;;;;;;6.27;1.23;;;;;;;;;;5013965;28;20412;-60
2023/12/25 02:23:10;;;;;;;5.47;1.20;;;;;;;;;;4992395;28;20487;-61
2023/12/25 02:25:40;;;;;;;4.43;0.82;;;;;;;;;;4999542;28;20416;-61
2023/12/25 02:28:06;;;;;;;5.38;0.88;;;;;;;;;;5016707;28;20411;-61
2023/12/25 02:30:31;;;;;;;4.07;1.00;;;;;;;;;;5033670;28;20470;-61
2023/12/25 02:32:56;;;;;;;3.50;0.73;;;;;;;;;;5018845;28;20399;-61
2023/12/25 02:35:22;;;;;;;3.47;0.70;;;;;;;;;;5017549;28;20426;-61
2023/12/25 02:37:47;;;;;;;3.67;0.70;;;;;;;;;;5001354;28;20460;-61
2023/12/25 02:40:12;;;;;;;3.10;0.80;;;;;;;;;;5026704;28;20474;-61
2023/12/25 02:42:38;;;;;;;4.83;0.80;;;;;;;;;;5025507;28;21166;-61
2023/12/25 02:45:03;;;;;;;3.93;0.60;;;;;;;;;;4997549;28;21085;-61
2023/12/25 02:47:28;;;;;;;3.58;0.60;;;;;;;;;;4998159;28;20421;-61
2023/12/25 02:49:54;;;;;;;2.93;0.70;;;;;;;;;;4993340;28;20486;-60
2023/12/25 02:52:19;;;;;;;3.93;0.70;;;;;;;;;;4998896;28;21617;-61
2023/12/25 02:54:44;;;;;;;3.63;1.10;;;;;;;;;;4998213;28;20409;-61
2023/12/25 02:57:10;;;;;;;3.47;0.80;;;;;;;;;;5007654;28;20408;-61
2023/12/25 02:59:35;;;;;;;5.60;1.20;;;;;;;;;;4998268;28;20415;-61
2023/12/25 03:02:00;;;;;;;5.05;1.05;;;;;;;;;;4994476;28;20547;-63
2023/12/25 03:04:25;;;;;;;5.73;1.40;;;;;;;;;;4992005;28;20807;-60
2023/12/25 03:06:51;;;;;;;7.47;1.60;;;;;;;;;;4991371;28;20432;-61
2023/12/25 03:09:16;;;;;;;8.03;1.60;;;;;;;;;;5019926;28;20403;-60
2023/12/25 03:11:42;;;;;;;10.17;2.00;;;;;;;;;;5026432;28;20407;-61
2023/12/25 03:14:07;;;;;;;12.57;2.10;;;;;;;;;;5027203;28;20963;-61
2023/12/25 03:16:32;;;;;;;13.17;2.17;;;;;;;;;;5026523;28;20395;-61
2023/12/25 03:18:57;;;;;;;10.00;2.13;;;;;;;;;;5026768;28;20411;-60
2023/12/25 03:21:23;;;;;;;9.80;2.10;;;;;;;;;;5027036;28;20411;-60
2023/12/25 03:23:48;;;;;;;11.17;2.30;;;;;;;;;;5026852;28;20406;-61
2023/12/25 03:26:13;;;;;;;10.47;2.27;;;;;;;;;;5027155;28;20408;-61
2023/12/25 03:28:39;;;;;;;12.35;2.30;;;;;;;;;;5026712;28;20454;-60
2023/12/25 03:31:04;;;;;;;10.93;2.40;;;;;;;;;;5026253;28;20404;-61
2023/12/25 03:33:29;;;;;;;10.60;2.40;;;;;;;;;;5027319;28;20414;-60
2023/12/25 03:35:54;;;;;;;11.40;2.60;;;;;;;;;;5027379;28;20402;-60
2023/12/25 03:38:20;;;;;;;12.13;2.40;;;;;;;;;;5021398;28;20403;-60
2023/12/25 03:40:45;;;;;;;10.93;2.27;;;;;;;;;;5011355;28;20400;-60
2023/12/25 03:43:10;;;;;;;11.20;2.40;;;;;;;;;;5022799;28;20396;-60
2023/12/25 03:45:35;;;;;;;10.97;1.97;;;;;;;;;;5030101;28;20466;-60
2023/12/25 03:48:01;;;;;;;12.00;2.30;;;;;;;;;;5025019;28;20510;-61
2023/12/25 03:50:26;;;;;;;11.43;2.60;;;;;;;;;;5030807;28;20886;-60
2023/12/25 03:52:51;;;;;;;12.60;2.57;;;;;;;;;;5030081;28;20771;-60
2023/12/25 03:55:17;;;;;;;11.53;2.60;;;;;;;;;;5030440;28;20402;-60
2023/12/25 03:57:42;;;;;;;10.90;2.20;;;;;;;;;;5029136;28;20403;-63
2023/12/25 04:00:08;;;;;;;10.57;2.20;;;;;;;;;;5029718;28;20415;-61
2023/12/25 04:02:33;;;;;;;12.43;2.47;;;;;;;;;;5030205;28;20391;-60
2023/12/25 04:04:58;;;;;;;12.97;2.40;;;;;;;;;;5030555;28;20411;-60
2023/12/25 04:07:23;;;;;;;10.67;2.30;;;;;;;;;;5023184;28;20395;-61
2023/12/25 04:09:49;;;;;;;10.37;2.17;;;;;;;;;;5001278;28;20522;-60
2023/12/25 04:12:14;;;;;;;10.02;1.95;;;;;;;;;;5001579;28;20748;-60
2023/12/25 04:14:39;;;;;;;11.47;2.30;;;;;;;;;;5001475;28;20503;-60
2023/12/25 04:17:05;;;;;;;10.73;1.90;;;;;;;;;;5001392;28;20939;-61
2023/12/25 04:19:30;;;;;;;11.67;2.50;;;;;;;;;;4999757;28;20488;-60
2023/12/25 04:21:55;;;;;;;13.40;2.50;;;;;;;;;;5001411;28;20415;-60
2023/12/25 04:24:21;;;;;;;10.40;2.03;;;;;;;;;;5014391;28;20679;-60
2023/12/25 04:26:46;;;;;;;10.27;2.10;;;;;;;;;;5012830;28;20814;-60
2023/12/25 04:29:11;;;;;;;9.82;2.03;;;;;;;;;;5012037;28;20455;-61
2023/12/25 04:31:36;;;;;;;10.80;2.30;;;;;;;;;;5007205;28;20945;-60
2023/12/25 04:34:02;;;;;;;9.60;1.77;;;;;;;;;;5000679;28;20389;-61
2023/12/25 04:36:27;;;;;;;9.17;2.03;;;;;;;;;;5001208;28;20397;-60
2023/12/25 04:38:52;;;;;;;11.43;2.00;;;;;;;;;;5000537;28;20412;-60
2023/12/25 04:41:21;;;;;;;9.00;2.37;;;;;;;;;;4999485;28;20401;-60
2023/12/25 04:43:47;;;;;;;9.65;2.25;;;;;;;;;;5005949;28;21073;-60
2023/12/25 04:46:12;;;;;;;10.57;2.10;;;;;;;;;;4997141;28;20919;-60
2023/12/25 04:48:37;;;;;;;10.20;2.03;;;;;;;;;;4987408;28;20455;-60
2023/12/25 04:51:02;;;;;;;10.13;2.20;;;;;;;;;;4993266;28;20535;-60
2023/12/25 04:53:29;;;;;;;11.47;1.90;;;;;;;;;;4996209;28;20405;-60
2023/12/25 04:55:55;;;;;;;8.57;1.70;;;;;;;;;;5000252;28;20495;-60
2023/12/25 04:58:20;;;;;;;11.63;2.00;;;;;;;;;;4999339;28;20413;-60
2023/12/25 05:00:46;;;;;;;10.07;2.17;;;;;;;;;;5000781;28;20401;-60
2023/12/25 05:03:11;;;;;;;11.30;1.93;;;;;;;;;;4999730;28;20405;-60
2023/12/25 05:05:36;;;;;;;10.30;2.00;;;;;;;;;;5000963;28;20412;-60
2023/12/25 05:08:01;;;;;;;10.90;2.10;;;;;;;;;;4998034;28;20487;-61
2023/12/25 05:10:27;;;;;;;10.00;1.80;;;;;;;;;;4992793;28;20412;-60
2023/12/25 05:12:52;;;;;;;11.03;2.17;;;;;;;;;;4993152;28;20470;-61
2023/12/25 05:15:17;;;;;;;10.33;2.13;;;;;;;;;;4992900;28;20455;-61
2023/12/25 05:17:43;;;;;;;9.52;2.20;;;;;;;;;;4999218;28;20490;-61
2023/12/25 05:20:08;;;;;;;9.43;1.70;;;;;;;;;;4999619;28;20776;-61
2023/12/25 05:22:34;;;;;;;7.55;1.55;;;;;;;;;;4999766;28;20408;-60
2023/12/25 05:24:59;;;;;;;9.27;2.07;;;;;;;;;;5000199;28;20759;-60
2023/12/25 05:27:24;;;;;;;10.17;1.80;;;;;;;;;;4999860;28;21209;-60
2023/12/25 05:29:49;;;;;;;10.83;2.30;;;;;;;;;;4998941;28;20408;-60
2023/12/25 05:32:15;;;;;;;9.67;1.73;;;;;;;;;;4994038;28;20621;-60
2023/12/25 05:34:40;;;;;;;8.53;1.90;;;;;;;;;;4992818;28;20400;-60
2023/12/25 05:37:05;;;;;;;8.77;1.60;;;;;;;;;;4991398;28;21014;-60
2023/12/25 05:39:31;;;;;;;12.03;1.97;;;;;;;;;;4997716;28;20600;-60
2023/12/25 05:41:56;;;;;;;9.80;2.10;;;;;;;;;;5000716;28;20409;-60
2023/12/25 05:44:21;;;;;;;9.10;1.52;;;;;;;;;;4998603;28;20470;-60
2023/12/25 05:46:47;;;;;;;8.47;1.80;;;;;;;;;;4999965;28;20400;-60
2023/12/25 05:49:12;;;;;;;8.13;1.73;;;;;;;;;;5013338;28;21021;-61
2023/12/25 05:51:38;;;;;;;8.73;1.60;;;;;;;;;;5018464;28;20762;-60
2023/12/25 05:54:03;;;;;;;9.50;1.75;;;;;;;;;;5015671;28;20636;-60
2023/12/25 05:56:28;;;;;;;6.20;1.37;;;;;;;;;;5007036;28;20471;-61
2023/12/25 05:58:53;;;;;;;6.80;1.40;;;;;;;;;;4990992;28;20776;-61
2023/12/25 06:01:19;;;;;;;7.90;1.33;;;;;;;;;;4994099;28;20441;-61
2023/12/25 06:03:44;;;;;;;6.57;1.40;;;;;;;;;;4999407;28;20791;-61
2023/12/25 06:06:10;;;;;;;7.05;1.50;;;;;;;;;;4999390;28;21179;-61
2023/12/25 06:08:35;;;;;;;6.00;1.60;;;;;;;;;;4999056;28;20907;-61
2023/12/25 06:11:00;;;;;;;7.73;1.60;;;;;;;;;;4999172;28;20400;-62
2023/12/25 06:13:26;;;;;;;8.83;1.47;;;;;;;;;;4999311;28;20404;-60
2023/12/25 06:15:51;;;;;;;8.67;2.07;;;;;;;;;;4998370;28;20417;-60
2023/12/25 06:18:17;;;;;;;7.82;1.60;;;;;;;;;;4990822;28;20423;-61
2023/12/25 06:20:42;;;;;;;7.80;1.70;;;;;;;;;;4991616;28;20408;-61
2023/12/25 06:23:07;;;;;;;5.93;1.50;;;;;;;;;;4992600;28;20439;-61
2023/12/25 06:25:32;;;;;;;6.77;1.60;;;;;;;;;;4999680;28;20404;-61
2023/12/25 06:27:58;;;;;;;6.95;1.50;;;;;;;;;;4997853;28;20506;-61
2023/12/25 06:30:23;;;;;;;6.50;1.60;;;;;;;;;;5007353;28;20397;-60
2023/12/25 06:32:48;;;;;;;7.50;1.80;;;;;;;;;;5008632;28;20503;-61
2023/12/25 06:35:14;;;;;;;7.07;1.63;;;;;;;;;;4999365;28;20796;-60
2023/12/25 06:37:39;;;;;;;7.63;1.70;;;;;;;;;;5000011;28;20908;-60
2023/12/25 06:40:05;;;;;;;7.27;1.70;;;;;;;;;;4997547;28;20409;-61
2023/12/25 06:42:30;;;;;;;6.68;1.77;;;;;;;;;;5013454;28;20449;-61
2023/12/25 06:44:56;;;;;;;6.50;1.40;;;;;;;;;;4999039;28;20613;-61
2023/12/25 06:47:21;;;;;;;8.57;1.75;;;;;;;;;;4990428;28;20498;-61
2023/12/25 06:49:46;;;;;;;6.87;1.60;;;;;;;;;;4991339;28;20459;-61
2023/12/25 06:52:11;;;;;;;7.77;1.70;;;;;;;;;;4998379;28;20389;-60
2023/12/25 06:54:37;;;;;;;6.97;1.90;;;;;;;;;;4998571;28;20432;-60
2023/12/25 06:57:02;;;;;;;6.97;1.73;;;;;;;;;;4998418;28;20413;-61
2023/12/25 06:59:27;;;;;;;8.47;1.70;;;;;;;;;;4998470;28;20405;-60
2023/12/25 07:01:54;;;;;;;6.72;1.73;;;;;;;;;;4998211;28;20432;-60
2023/12/25 07:04:19;;;;;;;7.40;1.70;;;;;;;;;;4996389;28;20408;-61
2023/12/25 07:06:45;;;;;;;6.90;1.60;;;;;;;;;;4991470;28;20405;-60
2023/12/25 07:09:13;;;;;;;6.83;1.60;;;;;;;;;;4989822;28;21295;-61
2023/12/25 07:11:39;;;;;;;7.60;1.40;;;;;;;;;;4994672;28;20389;-62
2023/12/25 07:14:04;;;;;;;6.33;1.30;;;;;;;;;;5001891;28;20482;-60
2023/12/25 07:16:29;;;;;;;4.40;1.10;;;;;;;;;;5002184;28;20413;-60
2023/12/25 07:18:55;;;;;;;5.35;1.35;;;;;;;;;;5001758;28;20530;-61
2023/12/25 07:21:21;;;;;;;4.87;1.10;;;;;;;;;;5002600;28;20509;-60
2023/12/25 07:23:46;;;;;;;6.45;1.17;;;;;;;;;;5002230;28;20744;-60
2023/12/25 07:26:11;;;;;;;5.97;1.47;;;;;;;;;;5001654;28;20973;-60
2023/12/25 07:28:37;;;;;;;4.83;1.10;;;;;;;;;;4994359;28;20488;-60
2023/12/25 07:31:02;;;;;;;5.77;1.20;;;;;;;;;;4994679;28;20415;-61
2023/12/25 07:33:27;;;;;;;5.30;1.10;;;;;;;;;;4996349;28;20471;-60
2023/12/25 07:35:53;;;;;;;6.13;0.90;;;;;;;;;;5002232;28;20408;-60
2023/12/25 07:38:18;;;;;;;4.93;1.20;;;;;;;;;;5000812;28;20413;-60
2023/12/25 07:40:43;;;;;;;3.53;1.03;;;;;;;;;;5002231;28;20958;-61
2023/12/25 07:43:10;;;;;;;5.70;1.10;;;;;;;;;;5000846;28;20495;-61
2023/12/25 07:45:36;;;;;;;3.80;1.00;;;;;;;;;;5002737;28;20483;-60
2023/12/25 07:48:01;;;;;;;4.15;1.20;;;;;;;;;;4996128;28;20745;-60
2023/12/25 07:50:26;;;;;;;4.43;1.47;;;;;;;;;;4996246;28;20403;-60
2023/12/25 07:52:52;;;;;;;4.87;1.60;;;;;;;;;;4995079;28;20407;-60
2023/12/25 07:55:17;;;;;;;5.33;1.73;;;;;;;;;;4994136;28;20408;-60
2023/12/25 07:57:42;;;;;;;4.80;0.93;;;;;;;;;;4998470;28;20403;-60
2023/12/25 08:00:08;;;;;;;4.03;1.15;;;;;;;;;;5003118;28;20404;-60
2023/12/25 08:02:33;;;;;;;3.00;0.97;;;;;;;;;;5029169;28;20513;-60
2023/12/25 08:04:59;;;;;;;10.63;5.67;;;;;;;;;;5029773;28;20419;-60
2023/12/25 08:07:24;;;;;;;7.83;3.90;;;;;;;;;;5030248;28;20438;-59
2023/12/25 08:09:49;;;;;;;6.32;3.55;;;;;;;;;;5029606;28;20874;-60
2023/12/25 08:12:15;;;;;;;6.13;1.83;;;;;;;;;;5029255;28;20406;-60
2023/12/25 08:14:40;;;;;;;6.03;1.40;;;;;;;;;;5030205;28;20778;-61
2023/12/25 08:17:05;;;;;;;3.42;0.90;;;;;;;;;;5029856;28;20399;-61
2023/12/25 08:19:31;;;;;;;5.53;1.60;;;;;;;;;;5028561;28;20403;-61
2023/12/25 08:21:56;;;;;;;3.90;1.80;;;;;;;;;;5030128;28;20406;-61
2023/12/25 08:24:21;;;;;;;4.07;0.97;;;;;;;;;;5028639;28;20406;-61
2023/12/25 08:26:47;;;;;;;4.77;1.00;;;;;;;;;;5029991;28;20804;-61
2023/12/25 08:29:12;;;;;;;3.03;0.70;;;;;;;;;;5032188;28;20761;-61
2023/12/25 08:31:38;;;;;;;5.03;1.40;;;;;;;;;;5037189;28;20399;-61
2023/12/25 08:34:03;;;;;;;3.70;1.40;;;;;;;;;;5028665;28;20792;-61
2023/12/25 08:36:28;;;;;;;5.63;1.23;;;;;;;;;;5030000;28;20410;-61
2023/12/25 08:38:54;;;;;;;3.67;1.00;;;;;;;;;;5028893;28;20482;-60
2023/12/25 08:41:19;;;;;;;5.30;0.90;;;;;;;;;;5029188;28;20447;-60
2023/12/25 08:43:44;;;;;;;4.47;1.10;;;;;;;;;;5029504;28;20438;-61
2023/12/25 08:46:10;;;;;;;5.57;1.00;;;;;;;;;;5028746;28;20439;-62
2023/12/25 08:48:35;;;;;;;5.30;1.10;;;;;;;;;;5023117;28;20430;-62
2023/12/25 08:51:00;;;;;;;5.63;1.43;;;;;;;;;;5029336;28;20399;-61
2023/12/25 08:53:25;;;;;;;7.03;1.10;;;;;;;;;;5027837;28;20406;-61
2023/12/25 08:55:51;;;;;;;5.57;0.90;;;;;;;;;;5029594;28;20545;-61
2023/12/25 08:58:17;;;;;;;4.80;1.00;;;;;;;;;;5028051;28;20456;-62
2023/12/25 09:00:42;;;;;;;5.97;1.17;;;;;;;;;;5028671;28;20749;-60
2023/12/25 09:03:08;;;;;;;6.17;1.10;;;;;;;;;;5025448;28;20914;-60
2023/12/25 09:05:33;;;;;;;3.63;0.97;;;;;;;;;;5031229;28;20432;-59
2023/12/25 09:07:58;;;;;;;5.22;1.10;;;;;;;;;;5040120;28;20403;-60
2023/12/25 09:10:24;;;;;;;9.17;5.50;;;;;;;;;;5027193;28;20410;-60
2023/12/25 09:12:50;;;;;;;5.00;2.00;;;;;;;;;;5028681;28;20849;-59
2023/12/25 09:15:16;;;;;;;4.63;1.80;;;;;;;;;;5027876;28;20400;-59
2023/12/25 09:17:41;;;;;;;5.63;1.17;;;;;;;;;;5026823;28;20406;-59
2023/12/25 09:20:07;;;;;;;6.87;1.30;;;;;;;;;;5023270;28;20967;-60
2023/12/25 09:22:32;;;;;;;4.73;1.00;;;;;;;;;;5028111;28;20814;-59
2023/12/25 09:24:57;;;;;;;4.83;1.03;;;;;;;;;;5028745;28;20925;-59
2023/12/25 09:27:23;;;;;;;4.93;1.20;;;;;;;;;;5027839;28;20406;-60
2023/12/25 09:29:48;;;;;;;3.40;1.00;;;;;;;;;;5027218;28;20490;-60
2023/12/25 09:32:13;;;;;;;5.73;1.30;;;;;;;;;;5028353;28;20521;-60
2023/12/25 09:34:39;;;;;;;3.80;1.13;;;;;;;;;;5028152;28;20411;-59
2023/12/25 09:37:04;;;;;;;3.95;1.17;;;;;;;;;;5024871;28;20502;-60
2023/12/25 09:39:29;;;;;;;3.87;1.10;;;;;;;;;;5008515;28;20411;-60
2023/12/25 09:41:55;;;;;;;3.47;1.00;;;;;;;;;;5009048;28;20484;-60
2023/12/25 09:44:20;;;;;;;4.17;1.10;;;;;;;;;;5014063;28;20541;-60
2023/12/25 09:46:45;;;;;;;2.87;1.10;;;;;;;;;;5019817;28;20405;-59
2023/12/25 09:49:11;;;;;;;4.35;1.10;;;;;;;;;;5014259;28;20419;-60
2023/12/25 09:51:36;;;;;;;4.17;1.30;;;;;;;;;;5024943;28;20536;-59
2023/12/25 09:54:02;;;;;;;4.20;1.30;;;;;;;;;;5022343;28;20421;-60
2023/12/25 09:56:28;;;;;;;3.95;1.15;;;;;;;;;;5023534;28;20516;-60
2023/12/25 09:58:53;;;;;;;4.77;1.20;;;;;;;;;;5018702;28;20417;-60
2023/12/25 10:01:18;;;;;;;4.22;1.10;;;;;;;;;;5025204;28;20403;-59
2023/12/25 10:03:45;;;;;;;3.93;1.20;;;;;;;;;;5025710;28;20410;-59
2023/12/25 10:06:10;;;;;;;3.13;0.90;;;;;;;;;;5019289;28;20403;-60
2023/12/25 10:08:36;;;;;;;3.60;1.10;;;;;;;;;;5027337;28;20466;-59
2023/12/25 10:11:02;;;;;;;3.75;1.00;;;;;;;;;;5018636;28;20815;-60
2023/12/25 10:13:28;;;;;;;3.63;1.17;;;;;;;;;;5025338;28;20413;-60
2023/12/25 10:15:53;;;;;;;3.53;1.20;;;;;;;;;;5028226;28;20882;-60
2023/12/25 10:18:19;;;;;;;3.77;1.03;;;;;;;;;;5023920;28;20420;-59
2023/12/25 10:20:55;;;;;;;3.92;1.10;;;;;;;;;;5018165;28;20525;-60
2023/12/25 10:23:21;;;;;;;3.20;1.08;;;;;;;;;;5019682;28;20808;-60
2023/12/25 10:25:47;;;;;;;3.20;1.37;;;;;;;;;;5019287;28;20469;-60
2023/12/25 10:28:12;;;;;;;2.67;1.20;;;;;;;;;;5018043;28;20947;-60
2023/12/25 10:30:37;;;;;;;3.30;1.03;;;;;;;;;;5024436;28;20379;-60
2023/12/25 10:33:08;;;;;;;2.60;0.97;;;;;;;;;;5025580;28;20937;-60
2023/12/25 10:35:33;;;;;;;3.97;1.30;;;;;;;;;;5023447;28;20403;-60
2023/12/25 10:37:58;;;;;;;4.00;1.10;;;;;;;;;;5025275;28;21004;-60
2023/12/25 10:40:24;;;;;;;3.10;0.90;;;;;;;;;;5025625;28;20894;-60
2023/12/25 10:42:50;;;;;;;3.55;0.90;;;;;;;;;;5026164;28;20423;-60
2023/12/25 10:45:18;;;;;;;4.32;1.17;;;;;;;;;;5025638;28;20405;-60
2023/12/25 10:47:44;;;;;;;4.13;1.00;;;;;;;;;;5026593;28;20421;-60
2023/12/25 10:50:10;;;;;;;3.07;1.00;;;;;;;;;;5022739;28;20672;-60
2023/12/25 10:52:35;;;;;;;4.55;0.95;;;;;;;;;;5030299;28;20402;-60
2023/12/25 10:55:00;;;;;;;3.30;1.00;;;;;;;;;;5029812;28;20789;-60
2023/12/25 10:57:25;;;;;;;3.87;0.90;;;;;;;;;;5030084;28;20423;-60
2023/12/25 10:59:51;;;;;;;3.80;0.97;;;;;;;;;;5029219;28;20429;-60
2023/12/25 11:02:16;;;;;;;3.55;1.20;;;;;;;;;;5038631;28;20397;-60
2023/12/25 11:04:42;;;;;;;2.80;0.87;;;;;;;;;;5042863;28;20422;-59
2023/12/25 11:07:07;;;;;;;3.93;1.03;;;;;;;;;;5023884;28;20439;-60
2023/12/25 11:09:32;;;;;;;2.70;0.90;;;;;;;;;;5008145;28;20480;-59
2023/12/25 11:11:58;;;;;;;3.63;0.90;;;;;;;;;;5013466;28;20406;-61
2023/12/25 11:14:23;;;;;;;4.25;1.05;;;;;;;;;;5028968;28;20962;-60
2023/12/25 11:16:49;;;;;;;3.17;1.00;;;;;;;;;;5029819;28;20418;-61
2023/12/25 11:19:14;;;;;;;3.57;0.80;;;;;;;;;;5028622;28;20490;-60
2023/12/25 11:21:39;;;;;;;3.80;1.20;;;;;;;;;;5027925;28;20386;-60
2023/12/25 11:24:05;;;;;;;3.17;1.00;;;;;;;;;;5045795;28;20397;-61
2023/12/25 11:26:30;;;;;;;5.27;1.07;;;;;;;;;;5048176;28;20412;-60
2023/12/25 11:28:56;;;;;;;4.30;1.05;;;;;;;;;;5035657;28;20418;-60
2023/12/25 11:31:22;;;;;;;2.78;0.85;;;;;;;;;;5027947;28;20426;-60
2023/12/25 11:33:47;;;;;;;2.90;1.10;;;;;;;;;;5029433;28;20427;-60
2023/12/25 11:36:13;;;;;;;3.23;0.80;;;;;;;;;;5028029;28;20906;-60
2023/12/25 11:38:40;;;;;;;4.32;1.17;;;;;;;;;;5028569;28;20654;-60
2023/12/25 11:41:05;;;;;;;3.25;0.75;;;;;;;;;;5027706;28;20407;-60
2023/12/25 11:43:31;;;;;;;4.27;1.10;;;;;;;;;;5036832;28;20397;-60
2023/12/25 11:45:57;;;;;;;3.72;1.00;;;;;;;;;;5043625;28;20457;-60
2023/12/25 11:48:23;;;;;;;4.03;1.00;;;;;;;;;;5031269;28;20405;-60
2023/12/25 11:50:48;;;;;;;4.43;0.93;;;;;;;;;;5048677;28;20451;-60
2023/12/25 11:53:32;;;;;;;4.30;1.10;;;;;;;;;;5047295;28;20444;-60
2023/12/25 11:55:57;;;;;;;2.88;1.05;;;;;;;;;;5048079;28;20405;-61
2023/12/25 11:58:22;;;;;;;3.50;1.20;;;;;;;;;;5025893;28;20502;-60
2023/12/25 12:00:48;;;;;;;4.13;0.90;;;;;;;;;;5042701;28;20391;-60
2023/12/25 12:03:13;;;;;;;5.57;0.97;;;;;;;;;;5027396;28;20427;-60
2023/12/25 12:05:41;;;;;;;4.87;1.00;;;;;;;;;;5028564;28;20391;-60
2023/12/25 12:08:07;;;;;;;3.83;1.10;;;;;;;;;;5027366;28;20482;-60
2023/12/25 12:10:32;;;;;;;4.88;0.95;;;;;;;;;;5027582;28;20491;-60
2023/12/25 12:12:58;;;;;;;3.67;1.10;;;;;;;;;;5026867;28;20478;-60
2023/12/25 12:15:23;;;;;;;5.83;1.20;;;;;;;;;;5025911;28;20902;-60
2023/12/25 12:17:48;;;;;;;5.13;1.20;;;;;;;;;;5025696;28;20522;-61
2023/12/25 12:20:14;;;;;;;4.40;0.70;;;;;;;;;;5031294;28;20500;-60
2023/12/25 12:22:39;;;;;;;3.50;0.80;;;;;;;;;;5014772;28;20829;-60
2023/12/25 12:25:11;;;;;;;3.73;0.90;;;;;;;;;;5042773;28;20924;-60
2023/12/25 12:27:37;;;;;;;2.73;0.77;;;;;;;;;;5028019;28;20395;-60
2023/12/25 12:30:02;;;;;;;3.75;0.80;;;;;;;;;;5025769;28;20415;-60
2023/12/25 12:32:27;;;;;;;4.03;1.00;;;;;;;;;;5028254;28;20418;-60
2023/12/25 12:34:53;;;;;;;4.93;0.90;;;;;;;;;;5028059;28;20778;-60
2023/12/25 12:37:20;;;;;;;4.30;1.00;;;;;;;;;;5026395;28;20433;-60
2023/12/25 12:39:45;;;;;;;4.18;1.05;;;;;;;;;;5025689;28;20411;-60
2023/12/25 12:42:11;;;;;;;3.47;0.90;;;;;;;;;;5026535;28;20481;-61
2023/12/25 12:44:36;;;;;;;4.00;1.10;;;;;;;;;;5035544;28;20430;-60
2023/12/25 12:47:02;;;;;;;3.33;0.90;;;;;;;;;;5026504;28;20427;-61
2023/12/25 12:49:27;;;;;;;3.90;1.63;;;;;;;;;;5021274;28;20426;-61
2023/12/25 12:51:54;;;;;;;5.23;2.60;;;;;;;;;;5028189;28;20413;-61
2023/12/25 12:54:20;;;;;;;6.30;2.60;;;;;;;;;;5024287;28;20587;-61
2023/12/25 12:56:45;;;;;;;4.37;1.73;;;;;;;;;;5023138;28;20496;-61
2023/12/25 12:59:10;;;;;;;8.00;2.70;;;;;;;;;;5026234;28;20461;-61
2023/12/25 13:01:36;;;;;;;5.20;1.70;;;;;;;;;;5027235;28;20395;-61
2023/12/25 13:04:01;;;;;;;5.60;1.77;;;;;;;;;;5027441;28;20409;-62
2023/12/25 13:06:26;;;;;;;4.00;1.67;;;;;;;;;;5028023;28;20448;-61
2023/12/25 13:08:53;;;;;;;5.32;1.50;;;;;;;;;;5026882;28;20472;-61
2023/12/25 13:11:20;;;;;;;3.47;1.60;;;;;;;;;;5027380;28;20414;-61
2023/12/25 13:13:45;;;;;;;4.60;2.00;;;;;;;;;;5025738;28;20761;-61
2023/12/25 13:16:11;;;;;;;4.70;2.23;;;;;;;;;;5027769;28;20866;-61
2023/12/25 13:18:36;;;;;;;3.77;1.60;;;;;;;;;;5026875;28;20395;-61
2023/12/25 13:21:01;;;;;;;3.88;1.77;;;;;;;;;;5026725;28;20406;-61
2023/12/25 13:23:27;;;;;;;3.80;1.57;;;;;;;;;;5027810;28;20391;-61
2023/12/25 13:25:52;;;;;;;4.13;1.27;;;;;;;;;;5027415;28;20410;-61
2023/12/25 13:28:17;;;;;;;4.10;1.60;;;;;;;;;;5025970;28;20414;-61
2023/12/25 13:30:43;;;;;;;3.63;1.30;;;;;;;;;;5027436;28;20391;-61
2023/12/25 13:33:08;;;;;;;3.97;1.13;;;;;;;;;;5026963;28;20791;-61
2023/12/25 13:35:34;;;;;;;3.22;1.10;;;;;;;;;;5027277;28;20932;-61
2023/12/25 13:37:59;;;;;;;4.97;1.20;;;;;;;;;;5026986;28;20456;-61
2023/12/25 13:40:26;;;;;;;2.33;0.80;;;;;;;;;;5031714;28;20436;-61
2023/12/25 13:42:51;;;;;;;3.55;1.10;;;;;;;;;;5029584;28;20502;-61
2023/12/25 13:45:17;;;;;;;4.53;1.20;;;;;;;;;;5027018;28;20530;-61
2023/12/25 13:47:42;;;;;;;4.03;1.17;;;;;;;;;;5026518;28;20407;-63
2023/12/25 13:50:07;;;;;;;5.20;1.30;;;;;;;;;;5021727;28;20486;-61
2023/12/25 13:52:33;;;;;;;2.97;1.20;;;;;;;;;;5027252;28;20453;-61
2023/12/25 13:54:58;;;;;;;3.40;1.00;;;;;;;;;;5027036;28;20391;-61
2023/12/25 13:57:24;;;;;;;4.25;1.30;;;;;;;;;;5025736;28;20395;-61
2023/12/25 13:59:49;;;;;;;3.15;1.10;;;;;;;;;;5026257;28;20438;-61
2023/12/25 14:02:15;;;;;;;4.07;1.20;;;;;;;;;;5028782;28;20958;-61
2023/12/25 14:04:40;;;;;;;3.43;1.00;;;;;;;;;;5026248;28;20407;-61
2023/12/25 14:07:06;;;;;;;4.97;1.40;;;;;;;;;;5026428;28;20422;-61
2023/12/25 14:09:32;;;;;;;4.35;1.10;;;;;;;;;;5026955;28;20411;-61
2023/12/25 14:11:59;;;;;;;3.78;1.27;;;;;;;;;;5041018;28;20758;-60
2023/12/25 14:14:24;;;;;;;3.20;1.00;;;;;;;;;;5026326;28;20752;-60
2023/12/25 14:16:49;;;;;;;3.70;1.10;;;;;;;;;;5026982;28;21119;-61
2023/12/25 14:19:17;;;;;;;3.57;1.13;;;;;;;;;;5024598;28;20431;-61
2023/12/25 14:21:42;;;;;;;4.78;1.40;;;;;;;;;;5032110;28;20932;-61
2023/12/25 14:24:07;;;;;;;4.40;1.30;;;;;;;;;;5042591;28;20397;-61
2023/12/25 14:26:33;;;;;;;5.07;1.50;;;;;;;;;;5026758;28;20406;-61
2023/12/25 14:28:58;;;;;;;3.43;1.17;;;;;;;;;;5025592;28;20442;-60